Tiempo atmosférico en la estación meteorológica de Bardenas Reales, Base Aérea, Navarra (295 m.)



Fecha
DESCASC
Temp. máxima en grados centígrados (hora)
DESCASC
Temp. mínima en grados centígrados (hora)
DESCASC
Temp. media en grados centígrados
DESCASC
Racha de viento máxima en m/sg (hora)
DESCASC
Velocidad máxima media en intervalos de 10 minutos(hora)
DESCASC
Precipitaciones diarias en mm
DESCASC
Precipitaciones de 00:00 a 06:00 en mm
DESCASC
Precipitaciones de 06:00 a 12:00 en mm
DESCASC
Precipitaciones de 12:00 a 18:00 en mm
DESCASC
Precipitaciones de 18:00 a 24:00 en mm
DESCASC
05-04-2020 18.7 (16:40) 7.7 (07:50) 13.2 15.28 (01:50) 11.11 (18:40) 0 0 0 0 0
04-04-2020 19.9 (17:20) 3.1 (04:10) 11.5 13.89 (19:10) 10.28 (19:10) 0 0 0 0 0
03-04-2020 16.6 (17:30) 4.7 (08:10) 10.7 14.17 (01:50) 9.44 (01:50) 0 0 0 0 0
02-04-2020 16.5 (15:20) 8 (00:00) 12.3 15.83 (19:40) 11.39 (19:00) 4.8 4.8 0 0 0
01-04-2020 11.2 (17:30) 5 (00:00) 8.1 8.06 (17:40) 6.11 (17:40) 19.6 0.4 7.2 7.6 4.4
31-03-2020 5.3 (19:30) 0.5 (00:00) 2.9 4.72 (01:30) 3.61 (01:30) 21.2 1.8 1.2 17 1.2
30-03-2020 9.1 (15:20) 3.5 (00:00) 6.3 15 (13:50) 10.28 (00:10) 0 0 0 0 0
29-03-2020 16 (15:40) 6.8 (00:00) 11.4 18.61 (18:10) 13.61 (17:00) 0 0 0 0 0
28-03-2020 19.1 (16:40) 0.7 (00:00) 9.9 7.5 (15:30) 3.61 (23:00) 0 0 0 0 0
27-03-2020 14.9 (17:00) 1.4 (00:00) 8.1 5.83 (16:10) 3.61 (01:50) 0 0 0 0 0
26-03-2020 12.9 (15:00) 3.8 (00:00) 8.3 17.22 (13:50) 12.78 (13:50) 0 0 0 0 0
25-03-2020 11.8 (16:00) 5.4 (00:00) 8.6 10.83 (17:00) 7.78 (01:00) 0 0 0 0 0
24-03-2020 16.7 (16:40) 8.7 (00:00) 12.7 10 (23:20) 7.78 (23:20) 0.2 0.2 0 0 0
23-03-2020 17 (16:00) 9.6 (00:00) 13.3 8.89 (16:20) 5.83 (16:20) 1.2 0 0 1.2 0
22-03-2020 17.1 (17:20) 6.5 (07:10) 11.8 6.67 (01:10) 5.28 (00:30) 0 0 0 0 0
21-03-2020 16.9 (15:50) 5.2 (00:00) 11 9.17 (15:10) 6.11 (04:40) 0 0 0 0 0
20-03-2020 16.5 (15:50) 5.2 (00:00) 10.8 11.11 (13:20) 7.78 (14:30) 0 0 0 0 0
19-03-2020 17.6 (16:30) 6.7 (00:00) 12.2 8.61 (14:30) 5.56 (16:50) 0 0 0 0 0
18-03-2020 16.6 (16:30) 6.3 (00:00) 11.5 5.56 (23:40) 4.72 (23:40) 0.2 0.2 0 0 0
17-03-2020 12.1 (17:40) 8.2 (00:00) 10.2 6.67 (01:00) 4.44 (01:00) 1 1 0 0 0
16-03-2020 11.7 (00:00) 4.6 (00:00) 8.1 14.44 (09:40) 11.11 (09:40) 28.4 8.2 13 2.6 4.6
15-03-2020 19.2 (16:00) 2.3 (00:00) 10.8 14.72 (16:30) 10.83 (16:30) 5.4 0 0 0 5.4
14-03-2020 18.4 (16:20) 4.1 (00:00) 11.2 13.89 (11:50) 10.83 (11:30) 0 0 0 0 0
13-03-2020 15.2 (13:40) 7.4 (23:59) 11.3 14.72 (03:50) 10.56 (10:10) 0 0 0 0 0
12-03-2020 22.9 (15:30) 6.8 (00:00) 14.8 13.89 (18:20) 10 (18:30) 0 0 0 0 0
11-03-2020 25.1 (17:10) 5 (00:00) 15.1 5.56 (14:30) 3.33 (06:50) 0 0 0 0 0

Gráficas

Temp. máximas Temp. mínimas Temp. medias Precipitaciones Rachas de viento máximas Velocidades máximas media en intervalos de 10 minutos

Datos horarios

Fecha y hora oficial Temperatura (ºC) Velocidad del viento (km/h) Dirección del viento Racha (km/h) Dirección de racha Precipitación (mm) Presión (hPa) Tendencia (hPa) Humedad (%)
2020-04-09 23:00:00 15.5 24 Este 29 Este 0 984.5 1.3 67
2020-04-09 22:00:00 16.3 18 Este 25 Este 0 984.2 1.5 67
2020-04-09 21:00:00 17.5 18 Este 24 Este 0 983.4 1 64
2020-04-09 20:00:00 18.9 13 Este 30 Este 0 983.2 0.2 60
2020-04-09 19:00:00 20.2 23 Este 34 Este 0 982.7 -0.9 51
2020-04-09 18:00:00 21.8 27 Este 35 Este 0 982.4 -1.9 46
2020-04-09 17:00:00 22.2 21 Este 33 Este 0 983 -2.1 44
2020-04-09 16:00:00 21.8 21 Este 32 Este 0 983.6 -2.1 44
2020-04-09 15:00:00 21 21 Este 32 Este 0 984.3 -1.9 46
2020-04-09 14:00:00 19.9 18 Este 28 Este 0 985.1 -1.4 47
2020-04-09 13:00:00 18.9 18 Este 31 Este 0 985.7 -0.8 51
2020-04-09 12:00:00 17 21 Este 28 Sudeste 0 986.2 -0.3 54
2020-04-09 11:00:00 14.7 19 Este 26 Este 0 986.5 0.3 63
2020-04-09 10:00:00 12.3 16 Este 22 Este 0 986.5 0.5 73
2020-04-09 09:00:00 10.6 14 Este 20 Este 0 986.5 0.8 81
2020-04-09 08:00:00 8.2 9 Este 13 Este 0 986.2 0.2 87
2020-04-09 07:00:00 7.9 5 Este 18 Este 0 986 -0.1 85
2020-04-09 06:00:00 9.6 17 Este 25 Este 0 985.7 -0.9 85
2020-04-09 05:00:00 9.5 3 Sudeste 15 Sudeste 0 986 -1 84
2020-04-09 04:00:00 9.9 14 Sudeste 19 Este 0 986.1 -0.9 84
2020-04-09 03:00:00 10.9 15 Este 21 Este 0 986.6 -0.6 81
2020-04-09 02:00:00 11.3 8 Este 17 Este 0 987 0 79
2020-04-09 01:00:00 12.2 17 Este 23 Este 0 987 0.4 78
2020-04-09 00:00:00 13 18 Este 25 Este 0 987.2 1 76
2020-04-08 23:00:00 13.7 19 Este 24 Este 0 987 1.1 75
2020-04-08 22:00:00 15.1 12 Este 16 Este 0 986.6 1.1 69
2020-04-08 21:00:00 16.7 10 Este 14 Este 0 986.2 0.6 66
2020-04-08 20:00:00 18.9 5 Sudeste 13 Este 0 985.9 -0.3 54
2020-04-08 19:00:00 20.8 7 Sudoeste 19 Sudoeste 0 985.5 -1.5 52
2020-04-08 18:00:00 21.3 5 Sudeste 14 Sudeste 0 985.6 -2.2 50
2020-04-08 17:00:00 20.9 6 Sudeste 18 Este 0 986.2 -2.4 50
2020-04-08 16:00:00 19.5 11 Este 21 Este 0 987 -2.3 51
2020-04-08 15:00:00 19.1 11 Este 22 Sudeste 0 987.8 -1.9 50
2020-04-08 14:00:00 18.2 11 Este 19 Este 0 988.6 -1.2 51
2020-04-08 13:00:00 15.6 12 Este 18 Este 0 989.3 -0.5 55
2020-04-08 12:00:00 14.6 12 Este 20 Este 0 989.7 0.4 61
2020-04-08 11:00:00 13.1 14 Este -- -- 0 989.8 0.6 68
2020-04-08 10:00:00 11.9 11 Este 22 Este 0 989.8 0.8 74
2020-04-08 09:00:00 11.1 17 Este 24 Este 0 989.3 0.3 77
2020-04-08 08:00:00 10.8 15 Este -- -- 0 989.2 -0.2 79
2020-04-08 07:00:00 10.8 15 Sudeste 18 Sudeste 0 989 -0.5 81
2020-04-08 06:00:00 11.1 11 Este 18 Sudeste 0 989 -1 82
2020-04-08 05:00:00 11.7 10 Sudeste 18 Sudeste 0 989.4 -1 83
2020-04-08 04:00:00 11.8 12 Este 19 Este 0 989.5 -0.5 84
2020-04-08 03:00:00 11.9 15 Este 19 Este 0 990 -0.3 84
2020-04-08 02:00:00 11.9 7 Este 23 Este 0 990.4 0.3 84
2020-04-08 01:00:00 12.3 18 Este 24 Este 0 990 0.4 83
2020-04-08 00:00:00 12.8 9 Sudeste 21 Este 0 990.3 1.5 81
2020-04-07 23:00:00 13 15 Este 28 Este 0 990.1 1.1 81
2020-04-07 22:00:00 13.3 18 Este 27 Este 0 989.6 1 80
2020-04-07 21:00:00 13.9 23 Este 38 Este 0 988.8 0.4 78
2020-04-07 20:00:00 14.5 22 Este 33 Este 0 989 0.5 76
2020-04-07 19:00:00 15.3 27 Este 38 Este 0 988.6 -0.1 72
2020-04-07 18:00:00 15.5 25 Este 39 Este 0 988.4 -0.6 72
2020-04-07 17:00:00 15 28 Este 38 Este 0 988.5 -0.9 75
2020-04-07 16:00:00 14.9 28 Este 44 Este 0 988.7 -0.8 76
2020-04-07 15:00:00 15.1 36 Este 44 Este 0 989 -0.9 76
2020-04-07 14:00:00 13.2 29 Este 44 Este 0 989.4 -0.3 85
2020-04-07 13:00:00 12.1 30 Este 41 Este 1 989.5 0.5 88
2020-04-07 12:00:00 11.3 23 Este 38 Este 0 989.9 1 87
2020-04-07 11:00:00 11.2 21 Este 40 Este 0.8 989.7 1.1 88
2020-04-07 10:00:00 10.5 21 Este 32 Este 3.6 989 0.9 90
2020-04-07 09:00:00 10.4 21 Este 29 Este 3.2 988.9 0.7 90
2020-04-07 08:00:00 10.8 17 Este 27 Este 0.2 988.6 0.6 87
2020-04-07 07:00:00 11.3 13 Sudeste 20 Este 0 988.1 -0.1 88
2020-04-07 06:00:00 11.5 14 Este 23 Este 0 988.2 -0.1 87
2020-04-07 05:00:00 11.6 18 Este 26 Este 0 988 -0.5 87
2020-04-07 04:00:00 11.7 14 Sudeste 25 Sudeste 0 988.2 -0.2 86
2020-04-07 03:00:00 11.8 12 Sudeste 21 Este 0 988.3 0 85
2020-04-07 02:00:00 12.1 8 Sudeste 21 Este 0 988.5 0 85
2020-04-07 01:00:00 12.3 8 Este 14 Este 0 988.4 0.6 83
2020-04-07 00:00:00 12.4 10 Este 14 Este 1.6 988.3 1.3 82
2020-04-06 23:00:00 12.8 6 Oeste 15 Este 0.8 988.5 2.1 76
2020-04-06 22:00:00 13.3 6 Nordeste 16 Este 0 987.8 1.8 75
2020-04-06 21:00:00 13.5 10 Sudeste 25 Este 0 987 1.2 73
2020-04-06 20:00:00 14.3 21 Este 31 Este 0 986.4 0.3 70
2020-04-06 19:00:00 14.8 20 Este 37 Este 0 986 -0.1 66
2020-04-06 18:00:00 15.2 30 Este 41 Este 0.2 985.8 -0.6 63
2020-04-06 17:00:00 16.4 30 Este 42 Este 0 986.1 -0.1 58
2020-04-06 16:00:00 16.9 30 Este 38 Este 0 986.1 -0.5 54
2020-04-06 15:00:00 17.4 28 Este 41 Este 0 986.4 -0.2 50
2020-04-06 14:00:00 16.3 28 Este 41 Este 0 986.2 0 52
2020-04-06 13:00:00 15.7 26 Este 35 Este 0 986.6 0.7 58
2020-04-06 12:00:00 14.1 24 Este 33 Sudeste 0 986.6 1.4 62
2020-04-06 11:00:00 12.7 21 Sudeste 28 Sudeste 0 986.2 1.4 69
2020-04-06 10:00:00 10.5 13 Sudeste 27 Sudeste 0 985.9 1.8 81
2020-04-06 09:00:00 9.4 17 Sudeste 24 Sudeste 0.2 985.2 1.5 84
2020-04-06 08:00:00 9.3 10 Sudeste 24 Sudeste 0.2 984.8 1.4 84
2020-04-06 07:00:00 9.5 16 Sudeste 24 Sudeste 0.2 984.1 0.7 84
2020-04-06 06:00:00 10 17 Sudeste 28 Sudeste 0 983.7 0.3 81
2020-04-06 05:00:00 10.4 14 Sudeste 24 Este 0 983.4 0.2 82
2020-04-06 04:00:00 10.9 15 Este 35 Sudeste 0 983.4 0.4 80
2020-04-06 03:00:00 11.2 20 Sudeste 33 Este 0 983.4 0.8 80
2020-04-06 02:00:00 11.5 26 Sudeste 42 Este 0 983.2 0.9 78
2020-04-06 01:00:00 11.7 18 Este 30 Este 0 983 1.1 78
2020-04-06 00:00:00 11.7 18 Este 29 Este 0 982.6 1.5 75
2020-04-05 23:00:00 11.8 18 Sudeste 28 Este 0 982.3 1.8 72
2020-04-05 22:00:00 12.9 21 Sudeste 31 Sudeste 0 981.9 1.6 66
2020-04-05 21:00:00 14.2 19 Sudeste 37 Este 0 981.1 0.8 60
2020-04-05 20:00:00 16.3 29 Este 49 Este 0 980.5 -0.3 54
2020-04-05 19:00:00 17.4 34 Este 53 Este 0 980.3 -1.3 51
2020-04-05 18:00:00 18.2 37 Este 50 Este 0 980.3 -2.1 48
2020-04-05 17:00:00 18.2 39 Este 48 Este 0 980.8 -2.2 45
2020-04-05 16:00:00 18.3 35 Este 48 Sudeste 0 981.6 -1.9 44
2020-04-05 15:00:00 18 32 Este 46 Este 0 982.4 -1.1 43
2020-04-05 14:00:00 16.8 30 Este 43 Este 0 983 -0.8 49
2020-04-05 13:00:00 15.3 29 Este 42 Este 0 983.5 -0.2 54
2020-04-05 12:00:00 14 31 Este 40 Este 0 983.5 -0.3 56
2020-04-05 11:00:00 13.3 29 Este 39 Sudeste 0 983.8 0.2 61
2020-04-05 10:00:00 11.2 27 Sudeste 38 Sudeste 0 983.7 0.9 68
2020-04-05 09:00:00 8.7 20 Sudeste 26 Sudeste 0 983.8 1 78
2020-04-05 08:00:00 7.8 8 Este 33 Este 0 983.6 1.1 80
2020-04-05 07:00:00 8 20 Sudeste 36 Este 0 982.8 0.2 81
2020-04-05 06:00:00 8.3 19 Sudeste 40 Este 0 982.8 0 80
2020-04-05 05:00:00 8.8 30 Este 48 Este 0 982.5 0.1 77
2020-04-05 04:00:00 8.9 31 Este 47 Este 0 982.6 0.5 76
2020-04-05 03:00:00 9.5 24 Este 48 Este 0 982.8 0.2 73
2020-04-05 02:00:00 10.5 39 Este 55 Este 0 982.4 0 71
2020-04-05 01:00:00 11 33 Este 47 Este 0 982.1 0.6 73
2020-04-05 00:00:00 11.6 20 Este 27 Este 0 982.6 1.8 69
2020-04-04 23:00:00 12.2 6 Sudeste 15 Este 0 982.4 2.1 62
2020-04-04 22:00:00 12.9 10 Sudeste 24 Sudeste 0 981.5 1.6 59
2020-04-04 21:00:00 14.5 18 Este 35 Este 0 980.8 1.1 56
2020-04-04 20:00:00 16.4 24 Este 50 Este 0 980.3 0.2 48
2020-04-04 19:00:00 18.2 36 Este 48 Este 0 979.9 -0.7 41
2020-04-04 18:00:00 19.4 32 Este 49 Este 0 979.7 -1.7 41
2020-04-04 17:00:00 19.7 31 Este 47 Sudeste 0 980.1 -2.1 36
2020-04-04 16:00:00 19.5 30 Este 44 Sudeste 0 980.6 -2.3 32
2020-04-04 15:00:00 18.5 27 Este 42 Este 0 981.4 -2.1 37
2020-04-04 14:00:00 16.7 28 Este 41 Este 0 982.2 -1.5 50
2020-04-04 13:00:00 15.3 26 Este 39 Este 0 982.9 -0.5 55
2020-04-04 12:00:00 14.1 24 Este 31 Este 0 983.5 0.3 61
2020-04-04 11:00:00 11.6 17 Este 29 Este 0 983.7 1 74
2020-04-04 10:00:00 9 17 Este 26 Sudeste 0 983.4 1 82
2020-04-04 09:00:00 4.8 2 Sur 14 Sudeste 0 983.2 0.7 86
2020-04-04 08:00:00 4 11 Este 22 Este 0 982.7 0.1 87
2020-04-04 07:00:00 4 17 Este 21 Este 0 982.4 0 86
2020-04-04 06:00:00 3.3 6 Sudeste 10 Este 0 982.5 0 83
2020-04-04 05:00:00 3.8 3 Este 14 Este 0 982.6 0.3 82
2020-04-04 04:00:00 3.5 7 Nordeste 11 Nordeste 0 982.4 0.2 80
2020-04-04 03:00:00 3.9 3 Sudoeste 4 Sudeste 0 982.5 0.6 77
2020-04-04 02:00:00 4.6 2 Sudeste 7 Sudeste 0 982.3 0.7 74
2020-04-04 01:00:00 6 2 Nordeste 5 Sudeste 0 982.2 1.1 71
2020-04-04 00:00:00 7.2 0 Calma 4 Sudeste 0 981.9 1.4 67
2020-04-03 23:00:00 8.9 3 Sudoeste 7 Sudeste 0 981.6 1.1 62
2020-04-03 22:00:00 10.1 5 Nordeste 9 Oeste 0 981.1 0.8 58
2020-04-03 21:00:00 12.3 8 Oeste 12 Sudoeste 0 980.5 0.2 49
2020-04-03 20:00:00 15.6 9 Oeste 22 Noroeste 0 980.5 -0.1 43
2020-04-03 19:00:00 16.4 15 Noroeste 22 Noroeste 0 980.3 -0.7 42
2020-04-03 18:00:00 16.6 16 Oeste 25 Noroeste 0 980.3 -1.3 45
2020-04-03 17:00:00 16.4 17 Noroeste 28 Oeste 0 980.6 -1.5 47
2020-04-03 16:00:00 15.6 21 Noroeste 33 Noroeste 0 981 -1.6 49
2020-04-03 15:00:00 14.7 20 Oeste 37 Noroeste 0 981.6 -1.2 53
2020-04-03 14:00:00 13.7 24 Oeste 37 Oeste 0 982.1 -0.6 56
2020-04-03 13:00:00 12.7 23 Noroeste 41 Noroeste 0 982.6 0 59
2020-04-03 12:00:00 11.3 27 Noroeste 42 Noroeste 0 982.8 0.4 62
2020-04-03 11:00:00 9.9 31 Noroeste 42 Noroeste 0 982.7 0.7 64
2020-04-03 10:00:00 8 24 Oeste 43 Oeste 0 982.6 1.1 68
2020-04-03 09:00:00 6.2 28 Oeste 41 Oeste 0 982.4 1.1 71
2020-04-03 08:00:00 4.9 28 Oeste 44 Oeste 0 982 1.1 71
2020-04-03 07:00:00 5.7 28 Oeste 44 Oeste 0 981.5 0.2 70
2020-04-03 06:00:00 5.9 34 Oeste 46 Noroeste 0 981.3 -0.2 69
2020-04-03 05:00:00 5.6 31 Noroeste 43 Noroeste 0 980.9 -0.5 69
2020-04-03 04:00:00 6 22 Oeste 39 Noroeste 0 981.3 -0.2 69
2020-04-03 03:00:00 6.5 28 Noroeste 47 Noroeste 0 981.5 0.2 68
2020-04-03 02:00:00 7.2 33 Noroeste 51 Noroeste 0 981.4 0.8 66
2020-04-03 01:00:00 7.3 34 Noroeste 49 Noroeste 0 981.5 1.9 65
2020-04-03 00:00:00 8.1 37 Noroeste 56 Noroeste 0 981.3 2.8 62
2020-04-02 23:00:00 8.7 34 Noroeste 48 Noroeste 0 980.6 2.7 59
2020-04-02 22:00:00 10.1 36 Noroeste 51 Noroeste 0 979.6 2.6 60
2020-04-02 21:00:00 11.5 31 Noroeste 48 Noroeste 0 978.5 1.9 58
2020-04-02 20:00:00 13.4 34 Noroeste 57 Noroeste 0 977.9 1.5 54
2020-04-02 19:00:00 14.7 41 Noroeste 56 Noroeste 0 977 0.7 54
2020-04-02 18:00:00 14.8 37 Noroeste 54 Noroeste 0 976.6 0.3 57
2020-04-02 17:00:00 16 36 Noroeste 54 Noroeste 0 976.4 -0.3 58
2020-04-02 16:00:00 16.1 31 Noroeste 47 Noroeste 0 976.3 -1 61
2020-04-02 15:00:00 16.3 30 Noroeste 42 Noroeste 0 976.3 -1.2 67
2020-04-02 14:00:00 15.3 8 Noroeste 24 Noroeste 0 976.7 -0.6 80
2020-04-02 13:00:00 14.2 9 Noroeste 27 Noroeste 0 977.3 0.1 89
2020-04-02 12:00:00 12.9 19 Noroeste 29 Noroeste 0 977.5 0.5 93
2020-04-02 11:00:00 11.2 12 Oeste 23 Oeste 0 977.3 0.5 98
2020-04-02 10:00:00 10.2 12 Oeste 19 Oeste 0 977.2 0.6 98
2020-04-02 09:00:00 8.6 9 Sudoeste 14 Sudoeste 0 977 0.2 97
2020-04-02 08:00:00 8.3 9 Sudoeste 13 Sudoeste 0 976.8 -0.2 96
2020-04-02 07:00:00 8.4 7 Noroeste 10 Noroeste 0 976.6 -0.8 96
2020-04-02 06:00:00 8 3 Noroeste 6 Noroeste 0 976.8 -1.1 95
2020-04-02 05:00:00 8.1 4 Noroeste 6 Norte 0 977 -1.1 95
2020-04-02 04:00:00 8.4 4 Noroeste 6 Norte 0.6 977.4 -1 94
2020-04-02 03:00:00 8.6 4 Norte 6 Norte 0.4 977.9 -0.8 94
2020-04-02 02:00:00 8.8 3 Noroeste 6 Nordeste 1.8 978.1 -0.4 93
2020-04-02 01:00:00 8.9 5 Nordeste 8 Nordeste 2 978.4 0.1 93
2020-04-02 00:00:00 9.1 4 Este 6 Este 1 978.7 0.8 92
2020-04-01 23:00:00 9.2 3 Noroeste 9 Este 0.6 978.5 0.9 91
2020-04-01 22:00:00 9.3 8 Este 9 Este 1.8 978.3 0.8 91
2020-04-01 21:00:00 9.6 8 Este 12 Este 0.6 977.9 0.5 90
2020-04-01 20:00:00 10.1 8 Este 17 Este 0.4 977.6 0 89
2020-04-01 19:00:00 10.4 14 Este 27 Este 0 977.5 -0.5 88
2020-04-01 18:00:00 11.2 19 Este 29 Este 0.2 977.4 -1.2 88
2020-04-01 17:00:00 10.5 20 Este 28 Este 0.8 977.6 -1.4 91
2020-04-01 16:00:00 10.4 13 Este 18 Este 0.8 978 -1.3 92
2020-04-01 15:00:00 9.9 0 Calma 6 Norte 1.4 978.6 -0.9 93
2020-04-01 14:00:00 8.8 3 Norte 7 Norte 1.8 979 -0.6 94
2020-04-01 13:00:00 8.3 4 Norte 10 Nordeste 2.6 979.3 0.1 94
2020-04-01 12:00:00 7.9 7 Norte 13 Norte 1.6 979.5 0.5 94
2020-04-01 11:00:00 7.2 5 Norte 7 Norte 2 979.6 0.8 93
2020-04-01 10:00:00 6.7 4 Nordeste 9 Norte 1.4 979.2 1 93
2020-04-01 09:00:00 5.9 3 Norte 4 Sur 2 979 0.7 92
2020-04-01 08:00:00 5.8 2 Sur 7 Sudoeste 0 978.8 0.2 92
2020-04-01 07:00:00 5.8 4 Sur 5 Sur 0.2 978.2 -0.6 92
2020-04-01 06:00:00 5.7 3 Sudoeste 5 Sudoeste 0 978.3 -0.9 91
2020-04-01 05:00:00 5.6 3 Norte 8 Norte 0 978.6 -0.8 91
2020-04-01 04:00:00 5.4 4 Norte 6 Noroeste 0.2 978.8 -0.7 90
2020-04-01 03:00:00 5.3 0 Calma 6 Oeste 0 979.2 -0.6 90
2020-04-01 02:00:00 5.1 6 Sudoeste 9 Oeste 0.2 979.4 -0.4 90
2020-04-01 01:00:00 5.1 3 Noroeste 4 Noroeste 0 979.5 0 89
2020-04-01 00:00:00 5 3 Sur 6 Sur 0 979.8 0.7 89
2020-03-31 23:00:00 4.9 3 Norte 4 Norte 0 979.8 1.1 88
2020-03-31 22:00:00 4.8 2 Oeste 5 Este 0.8 979.5 1 87
2020-03-31 21:00:00 5 2 Nordeste 5 Norte 0.4 979.1 0.6 87
2020-03-31 20:00:00 5.1 2 Oeste 4 Sudoeste 0 978.7 0.3 87
2020-03-31 19:00:00 4.8 0 Calma 8 Sudoeste 0 978.5 -0.2 87
2020-03-31 18:00:00 4.1 5 Sudoeste 9 Sur 1 978.5 -0.6 87
2020-03-31 17:00:00 3.9 4 Oeste 5 Oeste 1.6 978.4 -0.8 86
2020-03-31 16:00:00 3.5 0 Calma 5 Noroeste 3 978.7 -0.6 86
2020-03-31 15:00:00 3 0 Calma 4 Sur 3.8 979.1 -0.1 86
2020-03-31 14:00:00 2.5 2 Sudeste 6 Sudoeste 3.8 979.2 0.1 85
2020-03-31 13:00:00 2.2 3 Sudoeste 4 Sudoeste 3.8 979.3 0.4 85
2020-03-31 12:00:00 2.1 3 Norte 4 Norte 0.4 979.2 0.6 84
2020-03-31 11:00:00 2.3 0 Calma 3 Sudoeste 0.2 979.1 0.6 84
2020-03-31 10:00:00 1 3 Sudoeste 5 Sudoeste 0.2 978.9 0.6 84
2020-03-31 09:00:00 0.9 0 Calma 3 Sudoeste 0.2 978.6 0.3 82
2020-03-31 08:00:00 0.5 2 Sudoeste 5 Sudoeste 0.2 978.5 -0.2 81
2020-03-31 07:00:00 0.6 0 Calma 5 Noroeste 0 978.3 -0.9 79
2020-03-31 06:00:00 0.7 -- -- -- -- 0.2 978.3 -1.3 76
2020-03-31 05:00:00 1.3 0 Calma 4 Sur 1 978.7 -1 73
2020-03-31 04:00:00 2.6 4 Sudeste 10 Sudeste 0.6 979.2 -0.5 69
2020-03-31 03:00:00 3.6 6 Sudeste 10 Oeste 0 979.6 -0.5 66
2020-03-31 02:00:00 4.2 8 Oeste 17 Noroeste 0 979.7 -0.7 61
2020-03-31 01:00:00 4.5 9 Noroeste 15 Noroeste 0 979.7 -0.6 59
2020-03-31 00:00:00 4.7 12 Noroeste 21 Noroeste 0 980.1 0 58
2020-03-30 23:00:00 4.8 13 Noroeste 26 Noroeste 0 980.4 0.5 56
2020-03-30 22:00:00 5.2 19 Noroeste 34 Noroeste 0 980.3 0.7 53
2020-03-30 21:00:00 6.2 18 Noroeste 32 Noroeste 0 980.1 0.2 48
2020-03-30 20:00:00 7.5 22 Noroeste 37 Noroeste 0 979.9 -0.1 43
2020-03-30 19:00:00 8.1 28 Noroeste 40 Noroeste 0 979.6 -1 42
2020-03-30 18:00:00 8.4 28 Noroeste 47 Noroeste 0 979.9 -1.2 44
2020-03-30 17:00:00 8.4 33 Noroeste 48 Noroeste 0 980 -1.8 43
2020-03-30 16:00:00 8.9 33 Noroeste 46 Noroeste 0 980.6 -1.5 42
2020-03-30 15:00:00 8.4 33 Noroeste 51 Noroeste 0 981.1 -1.6 45
2020-03-30 14:00:00 8.3 33 Noroeste 54 Noroeste 0 981.8 -1.5 47
2020-03-30 13:00:00 7 32 Noroeste 45 Noroeste 0 982.1 -1.1 50
2020-03-30 12:00:00 5.9 28 Noroeste 47 Noroeste 0 982.7 -0.3 54
2020-03-30 11:00:00 6.2 28 Noroeste 41 Noroeste 0 983.3 1 56
2020-03-30 10:00:00 5.1 30 Noroeste 41 Noroeste 0 983.2 1 60
2020-03-30 09:00:00 3.7 30 Noroeste 42 Noroeste 0 983 0.8 63
2020-03-30 08:00:00 3.7 31 Noroeste 45 Noroeste 0 982.3 -0.2 64
2020-03-30 07:00:00 4 34 Noroeste 50 Noroeste 0 982.2 -0.5 65
2020-03-30 06:00:00 4 28 Noroeste 46 Noroeste 0 982.2 -0.7 69
2020-03-30 05:00:00 3.9 34 Noroeste 50 Noroeste 0 982.5 -0.2 71
2020-03-30 04:00:00 4.8 28 Noroeste 47 Noroeste 0 982.7 0.3 70
2020-03-30 03:00:00 5.7 33 Noroeste 48 Noroeste 0 982.9 0.5 70
2020-03-30 02:00:00 7.2 30 Noroeste 52 Noroeste 0 982.7 0.1 68
2020-03-30 01:00:00 8.4 35 Noroeste 53 Noroeste 0 982.4 -0.1 68
2020-03-30 00:00:00 8.8 35 Noroeste 50 Noroeste 0 982.4 0.3 70
2020-03-29 23:00:00 9 28 Noroeste 45 Noroeste 0 982.6 0.9 68
2020-03-29 22:00:00 9.4 32 Noroeste 53 Noroeste 0 982.5 1.1 66
2020-03-29 21:00:00 10.2 33 Noroeste 55 Noroeste 0 982.1 0.9 61
2020-03-29 20:00:00 11.4 40 Noroeste 59 Noroeste 0 981.7 1.1 57
2020-03-29 19:00:00 12.6 41 Noroeste 67 Noroeste 0 981.4 0.3 54
2020-03-29 18:00:00 14.1 42 Noroeste 62 Noroeste 0 981.2 -0.5 50
2020-03-29 17:00:00 15.8 49 Noroeste 63 Noroeste 0 980.6 -1.6 44
2020-03-29 16:00:00 15.7 43 Noroeste 60 Noroeste 0 981.1 -1.5 44
2020-03-29 15:00:00 15.7 41 Noroeste 62 Noroeste 0 981.7 -1.4 42
2020-03-29 14:00:00 15.5 39 Noroeste 53 Noroeste 0 982.2 -1.2 42
2020-03-29 13:00:00 14.5 37 Noroeste 52 Noroeste 0 982.6 -0.8 45
2020-03-29 12:00:00 12.7 40 Oeste 54 Oeste 0 983.1 -0.4 49
2020-03-29 11:00:00 11.4 36 Noroeste 52 Noroeste 0 983.4 0.2 53
2020-03-29 10:00:00 9.8 25 Oeste 39 Noroeste 0 983.4 0.3 55
2020-03-29 09:00:00 8.2 18 Oeste 39 Oeste 0 983.5 0.6 60
2020-03-29 08:00:00 7.3 27 Oeste 36 Noroeste 0 983.2 0.3 61
2020-03-29 07:00:00 6.8 19 Noroeste 34 Noroeste 0 983.1 -0.2 62
2020-03-29 06:00:00 7.2 22 Noroeste 33 Noroeste 0 982.9 -0.6 59
2020-03-29 05:00:00 7.4 14 Noroeste 23 Noroeste 0 982.9 -0.8 61
2020-03-29 03:00:00 8.1 4 Noroeste 14 Noroeste 0 983.5 0.2 64
2020-03-29 01:00:00 8 5 Noroeste 12 Oeste 0 983.7 0.6 63
2020-03-29 00:00:00 8.9 6 Oeste 13 Sudoeste 0 983.7 1.1 61
2020-03-28 23:00:00 9 13 Sudoeste 15 Sudoeste 0 983.3 1.5 57
2020-03-28 22:00:00 10.6 4 Oeste 9 Noroeste 0 983.1 1.7 53
2020-03-28 21:00:00 12 5 Noroeste 11 Oeste 0 982.6 1.6 48
2020-03-28 20:00:00 13.7 9 Oeste 11 Oeste 0 981.8 0.8 41
2020-03-28 19:00:00 17.9 8 Oeste 16 Noroeste 0 981.4 0.1 32
2020-03-28 18:00:00 18.8 10 Noroeste 18 Oeste 0 981 -0.8 32
2020-03-28 17:00:00 18.9 9 Oeste 19 Oeste 0 981 -1.4 31
2020-03-28 16:00:00 18.8 8 Noroeste 27 Noroeste 0 981.3 -1.8 33
2020-03-28 15:00:00 18.1 10 Noroeste 22 Oeste 0 981.8 -1.7 39
2020-03-28 14:00:00 17.2 12 Noroeste 21 Noroeste 0 982.4 -1.3 44
2020-03-28 13:00:00 15.5 10 Noroeste 20 Oeste 0 983.1 -0.8 52
2020-03-28 12:00:00 13.6 10 Oeste 17 Noroeste 0 983.5 0 62
2020-03-28 11:00:00 11.7 6 Oeste 14 Oeste 0 983.7 0.3 69
2020-03-28 10:00:00 8.8 5 Oeste 10 Noroeste 0 983.9 1.1 75
2020-03-28 09:00:00 5.9 3 Sudoeste 5 Oeste 0 983.5 1 79
2020-03-28 08:00:00 2.6 3 Norte 6 Oeste 0 983.4 1.3 81
2020-03-28 07:00:00 0.9 3 Sudoeste -- -- 0 982.8 1 80
2020-03-28 06:00:00 1 4 Oeste 5 Oeste 0 982.5 0.7 78
2020-03-28 05:00:00 1.6 4 Noroeste 5 Noroeste 0 982.1 0.4 76
2020-03-28 04:00:00 2.4 0 Calma 7 Sudeste 0 981.8 0.6 74
2020-03-28 03:00:00 2.6 3 Sudeste 6 Noroeste 0 981.8 0.9 72
2020-03-28 02:00:00 3.8 2 Sudeste 5 Sudeste 0 981.7 1.1 70
2020-03-28 01:00:00 4.5 3 Sur 4 Sur 0 981.2 1.2 67
2020-03-28 00:00:00 5.2 2 Sudeste 8 Sudeste 0 980.9 1.3 65
2020-03-27 23:00:00 6.2 5 Sudeste 10 Noroeste 0 980.6 1.7 60
2020-03-27 22:00:00 7.8 2 Noroeste 4 Norte 0 980 1.6 55
2020-03-27 21:00:00 8.9 4 Norte 8 Oeste 0 979.6 1.6 51
2020-03-27 20:00:00 10.9 8 Sudoeste 12 Sudoeste 0 978.9 1 44
2020-03-27 19:00:00 13.7 10 Sudoeste 14 Sudoeste 0 978.4 0.2 38
2020-03-27 18:00:00 14.7 4 Sudoeste 14 Sudeste 0 978 -0.4 36
2020-03-27 17:00:00 14.8 6 Sudoeste 21 Sur 0 977.9 -1 39
2020-03-27 16:00:00 14.5 6 Sudeste 18 Sudoeste 0 978.2 -1.1 42
2020-03-27 15:00:00 13.9 6 Sudoeste 20 Sudoeste 0 978.4 -1.4 43
2020-03-27 14:00:00 13.4 6 Sudoeste 17 Oeste 0 978.9 -1.2 49
2020-03-27 13:00:00 12.2 10 Sudoeste 17 Sudoeste 0 979.3 -0.8 54
2020-03-27 12:00:00 11.2 6 Sur 14 Sudoeste 0 979.8 -0.3 61
2020-03-27 11:00:00 10.2 6 Sudoeste 14 Noroeste 0 980.1 0.4 66
2020-03-27 10:00:00 8 5 Sudoeste 12 Sudoeste 0 980.1 1 72
2020-03-27 09:00:00 6.4 2 Sudoeste 4 Sudoeste 0 980.1 1.4 77
2020-03-27 08:00:00 3.7 2 Sur 9 Sur 0 979.7 1.2 79
2020-03-27 07:00:00 1.5 -- -- -- -- 0 979.1 0.8 79
2020-03-27 06:00:00 3.1 3 Sur 5 Sur 0 978.7 0.7 77
2020-03-27 05:00:00 3 3 Noroeste 6 Noroeste 0 978.5 0.4 76
2020-03-27 04:00:00 2.1 5 Noroeste 10 Este 0 978.3 0.5 75
2020-03-27 03:00:00 2.8 8 Este 10 Este 0 978 0.2 75
2020-03-27 02:00:00 3.4 10 Sudeste 20 Este 0 978.1 0.1 73
2020-03-27 01:00:00 5.9 12 Nordeste 20 Nordeste 0 977.8 0.3 66
2020-03-27 00:00:00 4.6 6 Noroeste 16 Noroeste 0 977.8 0.7 58
2020-03-26 23:00:00 4.6 9 Noroeste 27 Noroeste 0 978 1.9 54
2020-03-26 22:00:00 6.1 20 Norte 28 Norte 0 977.5 2.1 53
2020-03-26 21:00:00 7.1 23 Norte 37 Noroeste 0 977.1 2.3 48
2020-03-26 20:00:00 7.8 25 Noroeste 45 Noroeste 0 976.1 1.9 43
2020-03-26 19:00:00 9.8 33 Noroeste 49 Noroeste 0 975.4 1.4 37
2020-03-26 18:00:00 11.5 35 Noroeste 51 Noroeste 0 974.8 0.9 32
2020-03-26 17:00:00 12.7 32 Noroeste 49 Noroeste 0 974.2 0.3 34
2020-03-26 16:00:00 12.6 35 Noroeste 52 Noroeste 0 974 -0.6 37
2020-03-26 15:00:00 12.8 38 Noroeste 56 Noroeste 0 973.9 -1.1 34
2020-03-26 14:00:00 12.5 41 Noroeste 62 Noroeste 0 973.9 -1 41
2020-03-26 13:00:00 12.2 37 Noroeste 58 Noroeste 0 974.6 -0.2 45
2020-03-26 12:00:00 11.6 35 Noroeste 56 Noroeste 0 975 0.4 48
2020-03-26 11:00:00 10 27 Noroeste 41 Noroeste 0 974.9 0.1 65
2020-03-26 10:00:00 9.1 24 Oeste 36 Oeste 0 974.8 -0.1 70
2020-03-26 09:00:00 8.5 25 Oeste 42 Noroeste 0 974.6 -0.5 72
2020-03-26 08:00:00 7.9 22 Oeste 37 Noroeste 0 974.8 -0.4 76
2020-03-26 07:00:00 7.1 27 Oeste 37 Oeste 0 974.9 -1.3 79
2020-03-26 06:00:00 6.3 16 Noroeste 28 Noroeste 0 975.1 -1.9 80
2020-03-26 05:00:00 5.7 11 Noroeste 19 Noroeste 0 975.2 -2.6 81
2020-03-26 04:00:00 5.9 14 Noroeste 26 Noroeste 0 976.2 -2.1 82
2020-03-26 03:00:00 5.2 14 Noroeste 19 Noroeste 0 977 -1.5 84
2020-03-26 02:00:00 3.8 9 Noroeste 17 Noroeste 0 977.8 -1 85
2020-03-26 01:00:00 4.9 12 Oeste 15 Sudoeste 0 978.3 -0.4 85
2020-03-26 00:00:00 5.4 10 Noroeste 14 Noroeste 0 978.5 -0.2 83
2020-03-25 23:00:00 5.6 6 Sur 12 Sudeste 0 978.8 0.3 83
2020-03-25 22:00:00 5.7 12 Este 17 Este 0 978.7 0.6 83
2020-03-25 21:00:00 6.5 13 Este 22 Este 0 978.7 0.7 81
2020-03-25 20:00:00 7.4 17 Este 31 Este 0 978.5 0 78
2020-03-25 19:00:00 9 22 Este 32 Este 0 978.1 -1 72
2020-03-25 18:00:00 10.6 23 Este 33 Este 0 978 -1.9 69
2020-03-25 17:00:00 11.4 23 Este 39 Este 0 978.5 -2.3 68
2020-03-25 16:00:00 11.7 21 Este 34 Este 0 979.1 -2.2 67
2020-03-25 15:00:00 11.3 25 Este 36 Este 0 979.9 -1.9 69
2020-03-25 14:00:00 11.1 19 Este 33 Este 0 980.8 -0.8 70
2020-03-25 13:00:00 9.2 27 Este 36 Este 0 981.3 -0.3 77
2020-03-25 12:00:00 7.6 25 Este 38 Este 0 981.8 0.4 85
2020-03-25 11:00:00 8.2 26 Este 33 Este 0 981.6 0 82
2020-03-25 10:00:00 8.6 21 Este 27 Este 0 981.6 0.5 83
2020-03-25 09:00:00 9.4 19 Este 30 Este 0 981.4 0.6 84
2020-03-25 08:00:00 8.5 13 Este 19 Este 0 981.6 0.7 86
2020-03-25 07:00:00 8.6 12 Este 18 Este 0 981.1 -0.1 86
2020-03-25 06:00:00 8.6 12 Este 17 Este 0 980.8 -0.7 86
2020-03-25 05:00:00 8.4 12 Este 20 Este 0 980.9 -0.6 85
2020-03-25 04:00:00 9 15 Este 27 Este 0 981.2 -0.3 84
2020-03-25 03:00:00 9.3 20 Este 35 Este 0 981.5 0.2 83
2020-03-25 02:00:00 9.7 25 Este 35 Este 0 981.5 0.3 82
2020-03-25 01:00:00 9.8 28 Este 38 Este 0 981.5 0.4 81
2020-03-25 00:00:00 10.7 21 Este 36 Este 0 981.3 0.3 78
2020-03-24 23:00:00 11.5 22 Este 30 Este 0 981.2 0.4 75
2020-03-24 22:00:00 12.8 7 Sudeste 12 Este 0 981.1 0.4 67
2020-03-24 21:00:00 13.1 8 Sudeste 14 Sudeste 0 981 0.2 66
2020-03-24 20:00:00 13.2 7 Sudeste 14 Sur 0 980.8 -0.1 63
2020-03-24 19:00:00 15.1 9 Sur 16 Sudoeste 0 980.7 -0.8 59
2020-03-24 18:00:00 16 11 Sudoeste 21 Sudoeste 0 980.8 -1.5 58
2020-03-24 17:00:00 16.5 12 Sudoeste 21 Sudoeste 0 980.9 -2.1 59
2020-03-24 16:00:00 16.1 13 Sudoeste 23 Sudoeste 0 981.5 -2.3 63
2020-03-24 15:00:00 15.3 13 Sudoeste 19 Sudoeste 0 982.3 -2 67
2020-03-24 14:00:00 15.9 8 Sudoeste 14 Sudoeste 0 983 -1.6 72
2020-03-24 13:00:00 15 5 Oeste 9 Sudoeste 0 983.8 -1 78
2020-03-24 12:00:00 13.3 5 Sur 17 Sudeste 0 984.3 -0.4 80
2020-03-24 11:00:00 12.2 13 Este 21 Este 0 984.6 -0.1 83
2020-03-24 10:00:00 10.9 11 Sudeste 19 Este 0 984.8 0.6 87
2020-03-24 09:00:00 10.5 12 Este 20 Este 0 984.7 0.6 88
2020-03-24 08:00:00 9.6 13 Este 17 Este 0 984.7 0.6 90
2020-03-24 07:00:00 8.9 11 Este 14 Este 0 984.2 0.1 90
2020-03-24 06:00:00 9.2 12 Este 17 Este 0 984.1 0.4 90
2020-03-24 05:00:00 9.7 8 Este 17 Este 0 984.1 0 90
2020-03-24 04:00:00 10.4 5 Este 11 Nordeste 0 984.1 -0.2 90
2020-03-24 03:00:00 10.2 10 Este 14 Este 0 983.7 -0.6 89
2020-03-24 02:00:00 10.7 12 Este 15 Este 0.2 984.1 -0.2 88
2020-03-24 01:00:00 10.9 10 Este 13 Este 0 984.3 0.3 86
2020-03-24 00:00:00 11 4 Este 14 Este 0 984.3 0.6 84
2020-03-23 23:00:00 11 9 Este 14 Este 0 984.3 1.2 84
2020-03-23 22:00:00 11.1 8 Este 14 Este 0 984 1.4 83
2020-03-23 21:00:00 11.3 9 Este 14 Este 0 983.7 1.4 81
2020-03-23 20:00:00 11.9 12 Nordeste 14 Este 0 983.1 1.5 80
2020-03-23 19:00:00 12 10 Este 22 Este 0 982.6 1.1 78
2020-03-23 18:00:00 13.4 18 Este -- -- 0 982.3 0.5 78
2020-03-23 17:00:00 13.8 6 Este 32 Sudeste 1.2 981.6 -0.8 74
2020-03-23 16:00:00 16.9 13 Sur 22 Sudoeste 0 981.5 -1.5 65
2020-03-23 15:00:00 15.3 16 Sur 26 Sur 0 981.8 -1.4 65
2020-03-23 14:00:00 14.9 14 Este 22 Este 0 982.4 -0.9 67
2020-03-23 13:00:00 14 17 Este 24 Este 0 983 -0.2 69
2020-03-23 12:00:00 13.7 12 Este 19 Este 0 983.2 0.6 72
2020-03-23 11:00:00 13.6 9 Este 16 Este 0 983.3 1 74
2020-03-23 10:00:00 12.3 4 Este 9 Sudeste 0 983.2 1.6 81
2020-03-23 09:00:00 10.5 3 Este 6 Sudeste 0 982.6 1.3 83
2020-03-23 08:00:00 9.6 6 Este 8 Este 0 982.3 1.2 82
2020-03-23 07:00:00 9.7 6 Sudeste 9 Sudeste 0 981.6 0.7 81
2020-03-23 06:00:00 10.2 2 Norte 4 Sudeste 0 981.3 0.4 80
2020-03-23 05:00:00 10.4 2 Nordeste 10 Este 0 981.1 0.2 80
2020-03-23 04:00:00 10.4 8 Este 13 Este 0 980.9 0.1 79
2020-03-23 03:00:00 10.7 12 Este 16 Este 0 980.9 0.3 79
2020-03-23 02:00:00 10.2 8 Este 15 Este 0 980.9 0.4 79
2020-03-23 01:00:00 10.7 11 Este 22 Este 0 980.8 1.1 78
2020-03-23 00:00:00 11.1 16 Este 22 Este 0 980.6 1.5 75
2020-03-22 23:00:00 11.2 10 Este 21 Este 0 980.5 2.4 72
2020-03-22 22:00:00 11.5 4 Sudeste 19 Sudeste 0 979.7 2.2 69
2020-03-22 21:00:00 11.2 15 Este 18 Este 0 979.1 2.3 68
2020-03-22 20:00:00 14.2 5 Sudeste 14 Sur 0 978.1 1.1 55
2020-03-22 19:00:00 15.7 10 Sudeste 16 Este 0 977.5 0.4 49
2020-03-22 18:00:00 17 6 Nordeste 13 Sudeste 0 976.8 -0.6 48
2020-03-22 17:00:00 16.4 2 Sudeste 15 Este 0 977 -0.6 51
2020-03-22 16:00:00 16.2 8 Este 19 Este 0 977.1 -0.9 51
2020-03-22 15:00:00 16.3 11 Este 22 Este 0 977.4 -0.9 53
2020-03-22 14:00:00 16.8 6 Sudeste 14 Sudeste 0 977.6 -0.8 57
2020-03-22 13:00:00 16.6 5 Sur 13 Oeste 0 978 -0.3 60
2020-03-22 12:00:00 14.7 5 Sudoeste 14 Sudoeste 0 978.3 0.5 64
2020-03-22 11:00:00 13.7 3 Sur 9 Sur 0 978.4 0.9 71
2020-03-22 10:00:00 10.4 3 Noroeste 10 Norte 0 978.3 1.2 76
2020-03-22 09:00:00 8.6 4 Noroeste 8 Norte 0 977.8 0.9 79
2020-03-22 08:00:00 7.2 4 Norte 11 Norte 0 977.5 0.7 82
2020-03-22 07:00:00 6.9 6 Nordeste 12 Nordeste 0 977.1 0.5 80
2020-03-22 06:00:00 7.8 7 Nordeste 13 Este 0 976.9 0.1 78
2020-03-22 05:00:00 8.1 4 Noroeste 16 Este 0 976.8 0 76
2020-03-22 04:00:00 8.1 12 Este 19 Este 0 976.6 -0.2 76
2020-03-22 03:00:00 7.3 12 Este 19 Este 0 976.8 -0.1 77
2020-03-22 02:00:00 7.4 14 Este 24 Este 0 976.8 -0.2 77
2020-03-22 01:00:00 8 16 Este 23 Este 0 976.8 0.1 75
2020-03-22 00:00:00 8.7 14 Este 22 Este 0 976.9 0.6 74
2020-03-21 23:00:00 9.1 15 Este 21 Este 0 977 1.1 74
2020-03-21 22:00:00 9.8 17 Este 22 Este 0 976.7 1.4 72
2020-03-21 21:00:00 11.2 18 Este 21 Este 0 976.3 1.2 67
2020-03-21 20:00:00 12.4 8 Sudeste 15 Este 0 975.9 0.6 59
2020-03-21 19:00:00 15 8 Sudeste 17 Sudeste 0 975.3 -0.4 49
2020-03-21 18:00:00 16.5 12 Sudeste 23 Este 0 975.1 -1.3 44
2020-03-21 17:00:00 16.8 16 Este 32 Este 0 975.3 -2 39
2020-03-21 16:00:00 16.6 20 Este 33 Este 0 975.7 -2.4 37
2020-03-21 15:00:00 16.3 21 Este 31 Este 0 976.4 -2.5 41
2020-03-21 14:00:00 15.6 20 Sudeste 30 Este 0 977.3 -2.1 50
2020-03-21 13:00:00 14.7 20 Este 33 Sudeste 0 978.1 -1.5 57
2020-03-21 12:00:00 13.3 9 Sudeste 19 Sur 0 978.9 -0.9 71
2020-03-21 11:00:00 12.3 10 Sur 23 Sudeste 0 979.4 -0.5 74
2020-03-21 10:00:00 10.1 19 Este 23 Este 0 979.6 -0.2 80
2020-03-21 09:00:00 8.4 10 Sudeste 15 Este 0 979.8 -0.1 89
2020-03-21 08:00:00 5.9 5 Sudeste 13 Este 0 979.9 0.1 90
2020-03-21 07:00:00 5.6 11 Este 15 Este 0 979.8 -0.4 91
2020-03-21 06:00:00 5.3 5 Este 23 Sudeste 0 979.9 -0.6 90
2020-03-21 05:00:00 6.1 19 Este 25 Este 0 979.8 -1 90
2020-03-21 04:00:00 6.4 14 Este 21 Este 0 980.2 -0.9 88
2020-03-21 03:00:00 7 18 Este 21 Este 0 980.5 -0.8 87
2020-03-21 02:00:00 6.9 15 Este 20 Este 0 980.8 -0.6 86
2020-03-21 01:00:00 7.6 20 Este 22 Este 0 981.1 -0.1 85
2020-03-21 00:00:00 8.8 18 Este 22 Este 0 981.3 0.2 80
2020-03-20 23:00:00 9.6 17 Este 22 Este 0 981.4 0.4 79
2020-03-20 22:00:00 9.9 18 Este 21 Este 0 981.2 0.3 78
2020-03-20 21:00:00 11.2 16 Este 26 Este 0 981.1 0.3 74
2020-03-20 20:00:00 12.1 21 Este 25 Este 0 981 -0.1 70
2020-03-20 19:00:00 14.3 16 Este 31 Sudeste 0 980.9 -0.5 60
2020-03-20 18:00:00 15.7 24 Sudeste 33 Sudeste 0 980.8 -1 54
2020-03-20 17:00:00 16.2 24 Sudeste 37 Sudeste 0 981.1 -1 55
2020-03-20 16:00:00 16.4 22 Sudeste 38 Sudeste 0 981.4 -1.5 56
2020-03-20 15:00:00 15.3 22 Este 39 Sudeste 0 981.8 -2 58
2020-03-20 14:00:00 15.4 23 Este 40 Este 0 982.1 -2.2 60
2020-03-20 13:00:00 13.6 22 Este 35 Sudeste 0 982.9 -1.4 65
2020-03-20 12:00:00 12 14 Este 28 Este 0 983.8 -0.5 77
2020-03-20 11:00:00 10.6 14 Este 22 Este 0 984.3 0.3 81
2020-03-20 10:00:00 8.9 17 Este 24 Este 0 984.3 0.6 88
2020-03-20 09:00:00 7.5 12 Este 18 Este 0 984.3 0.6 90
2020-03-20 08:00:00 5.7 12 Este 18 Este 0 984 0.3 90
2020-03-20 07:00:00 5.6 16 Este 17 Este 0 983.7 0.1 89
2020-03-20 06:00:00 5.6 14 Este 18 Este 0 983.7 -0.2 88
2020-03-20 05:00:00 5.8 13 Este 15 Este 0 983.7 -0.4 88
2020-03-20 04:00:00 6.3 15 Este 18 Este 0 983.6 -0.5 86
2020-03-20 03:00:00 7.1 8 Sudeste 14 Este 0 983.9 -0.4 85
2020-03-20 02:00:00 7.8 4 Norte 13 Este 0 984.1 -0.1 84
2020-03-20 01:00:00 8.4 10 Este 16 Este 0 984.1 0.1 84
2020-03-20 00:00:00 9.3 13 Este 20 Este 0 984.3 0.5 81
2020-03-19 23:00:00 10.3 16 Este 20 Este 0 984.2 0.5 81
2020-03-19 22:00:00 10.8 18 Este 22 Este 0 984 0.5 80
2020-03-19 21:00:00 11.9 16 Este 19 Este 0 983.8 0.4 77
2020-03-19 20:00:00 13.2 8 Este 15 Este 0 983.7 0 74
2020-03-19 19:00:00 15.5 4 Sudeste 19 Este 0 983.5 -0.8 68
2020-03-19 18:00:00 16.5 10 Sur 22 Sudeste 0 983.4 -1.5 65
2020-03-19 17:00:00 16.6 17 Sudeste 26 Sudeste 0 983.7 -1.9 64
2020-03-19 16:00:00 17.2 18 Sudeste 27 Sur 0 984.3 -2.2 65
2020-03-19 15:00:00 16.8 15 Sudeste 31 Sudeste 0 984.9 -2.4 64
2020-03-19 14:00:00 16.5 19 Este 25 Este 0 985.6 -2.3 67
2020-03-19 13:00:00 16.1 9 Sudeste 17 Sudeste 0 986.5 -1.6 82
2020-03-19 12:00:00 15.2 9 Sudeste 20 Sur 0 987.3 -0.5 86
2020-03-19 11:00:00 13.1 4 Sur 12 Sudeste 0 987.9 0.3 90
2020-03-19 10:00:00 11.3 3 Sudeste 6 Este 0 988.1 0.6 92
2020-03-19 09:00:00 8.9 4 Sudeste 13 Este 0 987.8 0.4 93
2020-03-19 08:00:00 7.8 10 Este 17 Este 0 987.6 0.1 94
2020-03-19 07:00:00 7.4 10 Este 21 Este 0 987.5 -0.1 93
2020-03-19 06:00:00 8 12 Este 18 Este 0 987.4 -0.7 92
2020-03-19 05:00:00 8.2 11 Este 17 Este 0 987.5 -1.2 91
2020-03-19 04:00:00 8.8 14 Este 17 Este 0 987.6 -1.4 91
2020-03-19 03:00:00 9.2 11 Este 19 Este 0 988.1 -1.2 91
2020-03-19 02:00:00 9.9 14 Este 19 Este 0 988.7 -0.8 89
2020-03-19 01:00:00 10.3 13 Este 20 Este 0 989 -0.7 87
2020-03-19 00:00:00 10.4 13 Este 20 Este 0 989.3 -0.3 85
2020-03-18 23:00:00 10.6 5 Este 10 Sudeste 0 989.5 0 81
2020-03-18 22:00:00 11.3 3 Nordeste 11 Este 0 989.7 0.5 80
2020-03-18 21:00:00 11.6 8 Este 10 Este 0 989.6 0.5 78
2020-03-18 20:00:00 13.1 7 Este 11 Sudeste 0 989.5 0.3 76
2020-03-18 19:00:00 14.4 8 Sudeste 14 Sur 0 989.2 -0.5 75
2020-03-18 18:00:00 15.7 10 Sudeste 17 Este 0 989.1 -1.1 75
2020-03-18 17:00:00 16.3 11 Este 15 Este 0 989.2 -1.7 77
2020-03-18 16:00:00 16.5 5 Sudeste 14 Este 0 989.7 -2 86
2020-03-18 15:00:00 15.9 6 Sudeste 12 Sudeste 0 990.2 -2.3 93
2020-03-18 14:00:00 15.2 3 Este 9 Sur 0 990.9 -2 98
2020-03-18 13:00:00 14.1 4 Norte 8 Sur 0 991.7 -1.5 100
2020-03-18 12:00:00 12.6 3 Sudoeste 6 Sudoeste 0 992.5 -0.5 100
2020-03-18 11:00:00 10.4 3 Oeste 6 Noroeste 0 992.9 0.1 100
2020-03-18 10:00:00 7.8 3 Norte 4 Norte 0 993.2 0.6 100
2020-03-18 09:00:00 6.9 2 Norte 4 Norte 0 993 0.1 100
2020-03-18 08:00:00 6.4 0 Calma 6 Norte 0 992.8 0.1 100
2020-03-18 07:00:00 6.6 5 Oeste 7 Oeste 0 992.6 -0.2 100
2020-03-18 06:00:00 6.4 0 Calma 5 Nordeste 0 992.9 -0.2 100
2020-03-18 05:00:00 6.4 0 Calma 5 Sur 0 992.7 -0.7 99
2020-03-18 04:00:00 6.5 2 Sudeste 5 Noroeste 0.2 992.8 -1 97
2020-03-18 03:00:00 6.7 2 Oeste 5 Noroeste 0 993.1 -0.9 97
2020-03-18 02:00:00 7.1 0 Calma 5 Norte 0 993.4 -0.9 96
2020-03-18 01:00:00 7.5 2 Oeste 7 Noroeste 0 993.8 -0.4 95
2020-03-18 00:00:00 8.2 0 Calma 4 Nordeste 0 994 0 93
2020-03-17 23:00:00 9.3 0 Calma 6 Sudeste 0 994.3 0.8 93
2020-03-17 22:00:00 10.1 5 Sur 8 Sur 0 994.2 1 92
2020-03-17 21:00:00 10.6 3 Oeste 7 Oeste 0 994 1.2 92
2020-03-17 20:00:00 11.1 3 Sur 8 Sur 0 993.5 0.8 91
2020-03-17 19:00:00 11.6 6 Sudoeste 9 Sudoeste 0 993.2 0.3 92
2020-03-17 18:00:00 12.1 3 Sudoeste 8 Sur 0 992.8 0.2 92
2020-03-17 17:00:00 11.8 4 Sudoeste 14 Sudoeste 0 992.7 -0.1 92
2020-03-17 16:00:00 11.7 10 Sudoeste 13 Sudoeste 0 992.9 -0.1 93
2020-03-17 15:00:00 11.7 6 Sudoeste 9 Sudoeste 0 992.6 -0.1 94
2020-03-17 14:00:00 11.3 2 Sudoeste 6 Oeste 0 992.8 0.4 94
2020-03-17 13:00:00 10.5 3 Norte 9 Oeste 0 993 1.4 95
2020-03-17 12:00:00 10.2 3 Sudoeste 7 Oeste 0 992.7 1.6 95
2020-03-17 11:00:00 9.8 4 Sudoeste 14 Sudoeste 0 992.4 2 95
2020-03-17 10:00:00 9.5 6 Sudoeste 9 Sudoeste 0 991.6 1.9 95
2020-03-17 09:00:00 9 5 Oeste 9 Sur 0 991.1 2 95
2020-03-17 08:00:00 9.1 5 Oeste 7 Sudoeste 0 990.4 2.1 95
2020-03-17 07:00:00 9 0 Calma 9 Oeste 0 989.7 1.8 94
2020-03-17 06:00:00 9 7 Sudoeste 13 Oeste 0 989.1 1.1 94
2020-03-17 05:00:00 8.9 11 Oeste 15 Oeste 0 988.3 0.4 94
2020-03-17 04:00:00 8.9 10 Oeste 14 Oeste 0.4 987.9 0.3 93
2020-03-17 03:00:00 9.1 11 Oeste 16 Oeste 0.2 988 0.5 93
2020-03-17 02:00:00 9 10 Oeste 22 Noroeste 0.2 987.9 1.3 93
2020-03-17 01:00:00 8.9 16 Noroeste 24 Noroeste 0.2 987.6 1.4 93
2020-03-17 00:00:00 9.1 15 Noroeste 28 Oeste 0.2 987.5 3.1 93
2020-03-16 23:00:00 8.8 15 Noroeste 29 Noroeste 2.2 986.6 3.3 93
2020-03-16 22:00:00 8.7 17 Oeste 26 Sudoeste 1.8 986.2 3.5 92
2020-03-16 21:00:00 9.4 12 Oeste 19 Noroeste 0 984.4 2.5 93
2020-03-16 20:00:00 9.3 9 Oeste 15 Noroeste 0.2 983.3 1.5 93
2020-03-16 19:00:00 8.8 11 Sudoeste 24 Noroeste 0.2 982.7 1.5 93
2020-03-16 18:00:00 8.5 14 Noroeste 24 Noroeste 0.6 981.9 0.5 93
2020-03-16 17:00:00 8.3 18 Noroeste 24 Noroeste 0.4 981.8 0.5 93
2020-03-16 16:00:00 7.9 17 Noroeste 24 Noroeste 0.2 981.2 -0.1 93
2020-03-16 15:00:00 6.9 14 Oeste 24 Noroeste 0.4 981.4 1 93
2020-03-16 14:00:00 6.4 14 Oeste 21 Noroeste 0.4 981.3 1.5 92
2020-03-16 13:00:00 5.6 10 Oeste 30 Oeste 0.6 981.3 2.2 92
2020-03-16 12:00:00 4.7 21 Noroeste 32 Noroeste 2.4 980.4 2 92
2020-03-16 11:00:00 4.8 26 Noroeste 48 Noroeste 1.6 979.8 2 91
2020-03-16 10:00:00 4.6 32 Noroeste 52 Noroeste 1.8 979.1 1.4 91
2020-03-16 09:00:00 4.7 35 Oeste 51 Oeste 3.8 978.4 1.4 91
2020-03-16 08:00:00 6 28 Noroeste 39 Oeste 1.8 977.8 1.1 90
2020-03-16 07:00:00 6.4 26 Noroeste 36 Noroeste 1.6 977.7 1.4 90
2020-03-16 06:00:00 6.5 29 Noroeste 41 Noroeste 3.4 977 0.3 89
2020-03-16 05:00:00 6.9 25 Noroeste 37 Noroeste 1.8 976.7 0.5 88
2020-03-16 04:00:00 7.2 28 Noroeste 44 Noroeste 1 976.3 0.3 88
2020-03-16 03:00:00 8.3 26 Oeste 40 Oeste 0.6 976.7 0.1 87
2020-03-16 02:00:00 9.9 11 Sur 27 Sudoeste 0.2 976.2 -0.4 85
2020-03-16 01:00:00 11 6 Sudeste 30 Este 1.2 976 0.1 85
2020-03-16 00:00:00 11.7 12 Sudeste 31 Sur 5.4 976.6 0.9 81
2020-03-15 23:00:00 12.5 24 Este 38 Este 0 976.6 2.5 80
2020-03-15 22:00:00 13.8 16 Este 36 Noroeste 0 975.9 1.3 76
2020-03-15 21:00:00 14.1 20 Sur 41 Este 0 975.7 1.6 76
2020-03-15 20:00:00 14.4 14 Este 32 Sudeste 0 974.1 -1 73
2020-03-15 19:00:00 15.4 27 Sudeste 49 Sudeste 0 974.6 -0.9 68
2020-03-15 18:00:00 16 33 Este 48 Este 0 974.1 -2.2 68
2020-03-15 17:00:00 17.4 31 Este 53 Este 0 975.1 -2.4 60
2020-03-15 16:00:00 19.1 35 Sudeste 46 Este 0 975.5 -3.4 52
2020-03-15 15:00:00 18.4 27 Este 45 Este 0 976.3 -3.8 52
2020-03-15 14:00:00 17.8 27 Este 45 Este 0 977.5 -3.6 52
2020-03-15 13:00:00 17 29 Este 42 Este 0 978.9 -2.8 55
2020-03-15 12:00:00 16.1 23 Este 38 Sudeste 0 980.1 -1.7 59
2020-03-15 11:00:00 13.9 19 Sudeste 29 Sudeste 0 981.1 -0.8 67
2020-03-15 10:00:00 10.8 21 Este 31 Este 0 981.7 -0.2 75
2020-03-15 09:00:00 8.1 14 Este 21 Este 0 981.8 0 80
2020-03-15 08:00:00 3.4 2 Sur 13 Este 0 981.9 -0.3 81
2020-03-15 07:00:00 2.8 6 Sudeste 16 Sudeste 0 981.9 -0.8 80
2020-03-15 06:00:00 4.8 8 Sudeste 21 Este 0 981.8 -1.5 79
2020-03-15 05:00:00 3.4 6 Nordeste 15 Este 0 982.2 -1.6 77
2020-03-15 04:00:00 2.7 3 Este 8 Norte 0 982.7 -1.3 76
2020-03-15 03:00:00 3 4 Norte 10 Nordeste 0 983.3 -0.9 74
2020-03-15 02:00:00 3.7 5 Este 13 Este 0 983.8 -0.4 73
2020-03-15 01:00:00 4.4 5 Nordeste 7 Norte 0 984 -0.2 72
2020-03-15 00:00:00 5.4 4 Sudeste 10 Norte 0 984.2 0.2 66
2020-03-14 23:00:00 6.6 8 Noroeste 9 Norte 0 984.2 0.5 62
2020-03-14 22:00:00 9.2 3 Sudoeste 11 Sur 0 984.2 0.7 57
2020-03-14 21:00:00 10.3 7 Noroeste 14 Sur 0 984 0.4 54
2020-03-14 20:00:00 12 14 Noroeste 23 Noroeste 0 983.7 0.1 50
2020-03-14 19:00:00 15.1 18 Noroeste 29 Noroeste 0 983.5 -0.6 44
2020-03-14 18:00:00 17.1 21 Noroeste 33 Noroeste 0 983.6 -1 41
2020-03-14 17:00:00 17.9 24 Noroeste 36 Noroeste 0 983.6 -1.9 39
2020-03-14 16:00:00 18 23 Noroeste 36 Noroeste 0 984.1 -1.9 38
2020-03-14 15:00:00 17.8 27 Oeste 40 Oeste 0 984.6 -1.9 38
2020-03-14 14:00:00 16.9 29 Noroeste 46 Noroeste 0 985.5 -1.5 38
2020-03-14 13:00:00 15.4 33 Noroeste 50 Noroeste 0 986 -0.9 44
2020-03-14 12:00:00 13.3 37 Noroeste 50 Noroeste 0 986.5 -0.2 48
2020-03-14 11:00:00 11.8 34 Noroeste 45 Noroeste 0 987 0.6 51
2020-03-14 10:00:00 10.5 32 Oeste 45 Oeste 0 986.9 0.8 58
2020-03-14 09:00:00 8.9 26 Noroeste 35 Oeste 0 986.7 0.8 73
2020-03-14 08:00:00 5 2 Nordeste 8 Norte 0 986.4 0.8 81
2020-03-14 07:00:00 4.3 2 Sur 10 Noroeste 0 986.1 0.6 80
2020-03-14 06:00:00 4.8 6 Noroeste 18 Noroeste 0 985.9 -0.1 80
2020-03-14 05:00:00 5 14 Oeste 25 Noroeste 0 985.6 -0.5 79
2020-03-14 04:00:00 6.1 16 Noroeste 27 Noroeste 0 985.5 -0.7 78
2020-03-14 03:00:00 5.6 8 Oeste 14 Noroeste 0 986 -0.3 76
2020-03-14 02:00:00 6.6 5 Noroeste 17 Oeste 0 986.1 -0.1 75
2020-03-14 01:00:00 7.3 15 Oeste 21 Oeste 0 986.2 0.6 74
2020-03-14 00:00:00 7.4 7 Oeste 16 Oeste 0 986.3 1.1 72
2020-03-13 23:00:00 7.8 11 Oeste 16 Noroeste 0 986.2 1.1 71
2020-03-13 22:00:00 8.7 12 Oeste 15 Oeste 0 985.6 0.8 69
2020-03-13 21:00:00 9.6 13 Noroeste 22 Noroeste 0 985.2 0.9 67
2020-03-13 20:00:00 10.5 13 Noroeste 30 Noroeste 0 985.1 0.9 65
2020-03-13 19:00:00 11.9 22 Noroeste 34 Noroeste 0 984.8 0.4 62
2020-03-13 18:00:00 13.3 23 Noroeste 32 Noroeste 0 984.3 -0.1 59
2020-03-13 17:00:00 14.7 21 Noroeste 31 Noroeste 0 984.2 -0.7 57
2020-03-13 16:00:00 14.7 18 Noroeste 27 Noroeste 0 984.4 -1.2 58
2020-03-13 15:00:00 14.8 18 Noroeste 27 Noroeste 0 984.4 -1.5 58
2020-03-13 14:00:00 15.2 17 Norte 29 Noroeste 0 984.9 -1.1 57
2020-03-13 13:00:00 14.8 20 Noroeste 35 Oeste 0 985.6 -0.3 59
2020-03-13 12:00:00 14 23 Noroeste 42 Noroeste 0 985.9 0.2 62
2020-03-13 11:00:00 13.1 30 Noroeste 48 Noroeste 0 986 0.7 63
2020-03-13 10:00:00 11.8 35 Noroeste 47 Noroeste 0 985.9 0.9 67
2020-03-13 09:00:00 10.4 31 Oeste 46 Noroeste 0 985.7 1.2 71
2020-03-13 08:00:00 9.7 32 Oeste 50 Noroeste 0 985.3 0.6 72
2020-03-13 07:00:00 9.5 36 Oeste 53 Oeste 0 985 0.5 71
2020-03-13 06:00:00 9.7 35 Noroeste 49 Oeste 0 984.5 -0.6 72
2020-03-13 05:00:00 10.3 35 Oeste 51 Oeste 0 984.7 -0.7 74
2020-03-13 04:00:00 10.9 37 Noroeste 53 Oeste 0 984.5 -0.9 75
2020-03-13 03:00:00 11.1 34 Noroeste 49 Noroeste 0 985.1 -0.6 74
2020-03-13 02:00:00 11.8 32 Noroeste 48 Noroeste 0 985.4 -0.1 74
2020-03-13 01:00:00 12.1 35 Oeste 49 Oeste 0 985.4 0.4 74
2020-03-13 00:00:00 11.8 27 Oeste 42 Noroeste 0 985.7 1 74
2020-03-12 23:00:00 12.1 28 Noroeste 41 Oeste 0 985.5 1.3 72
2020-03-12 22:00:00 12.3 27 Noroeste 44 Noroeste 0 985 1.6 70
2020-03-12 21:00:00 13 26 Noroeste 39 Noroeste 0 984.7 2.1 68
2020-03-12 20:00:00 13.7 21 Noroeste 39 Noroeste 0 984.2 1.8 65
2020-03-12 19:00:00 15.4 30 Noroeste 50 Noroeste 0 983.4 1 61
2020-03-12 18:00:00 17 34 Noroeste 49 Noroeste 0 982.6 -0.2 56
2020-03-12 17:00:00 20.4 33 Noroeste 42 Noroeste 0 982.4 -1.5 49
2020-03-12 16:00:00 22.3 20 Noroeste 29 Oeste 0 982.4 -2.5 45
2020-03-12 15:00:00 22.3 17 Noroeste 26 Noroeste 0 982.8 -2.7 45
2020-03-12 14:00:00 21.4 5 Norte 12 Sudoeste 0 983.9 -1.9 45
2020-03-12 13:00:00 20.7 5 Sudoeste 12 Oeste 0 984.9 -1 52
2020-03-12 12:00:00 18.9 4 Sur 11 Sudoeste 0 985.5 -0.4 57
2020-03-12 11:00:00 17.2 5 Sudoeste 8 Sudoeste 0 985.8 0.6 64
2020-03-12 10:00:00 13.9 3 Sudoeste 5 Sudoeste 0 985.9 1 71
2020-03-12 09:00:00 9.5 0 Calma 6 Noroeste 0 985.9 1.1 75
2020-03-12 08:00:00 7.3 4 Noroeste 5 Oeste 0 985.2 0.6 75
2020-03-12 07:00:00 7.1 2 Oeste 10 Sudeste 0 984.9 -0.1 73
2020-03-12 06:00:00 8.2 2 Nordeste 10 Sudeste 0 984.8 -0.6 71
2020-03-12 05:00:00 8.9 3 Oeste 6 Oeste 0 984.6 -1.2 69
2020-03-12 04:00:00 9.4 3 Sur 10 Noroeste 0 985 -1 67
2020-03-12 03:00:00 11.4 2 Norte 15 Este 0 985.4 -0.8 63
2020-03-12 02:00:00 11.9 5 Este 14 Nordeste 0 985.8 -0.2 61
2020-03-12 01:00:00 11.8 4 Nordeste 11 Este 0 986 0 63
2020-03-12 00:00:00 12.4 3 Noroeste 8 Noroeste 0 986.2 0.5 58
2020-03-11 23:00:00 12.4 6 Noroeste 7 Noroeste 0 986 0.3 55
2020-03-11 22:00:00 13.3 3 Oeste 11 Noroeste 0 986 0.6 52
2020-03-11 21:00:00 14.5 3 Este 9 Sudeste 0 985.7 0.6 47
2020-03-11 20:00:00 17.3 4 Sudeste 8 Sudeste 0 985.7 0.7 38
2020-03-11 19:00:00 21.2 7 Noroeste 11 Noroeste 0 985.4 0 32
2020-03-11 18:00:00 24.3 9 Noroeste 13 Noroeste 0 985.1 -1 29
2020-03-11 17:00:00 25 4 Noroeste 14 Norte 0 985 -2.1 29
2020-03-11 16:00:00 24.4 4 Norte 15 Noroeste 0 985.4 -2.6 32
2020-03-11 15:00:00 23.5 6 Noroeste 20 Noroeste 0 986.1 -2.7 37
2020-03-11 14:00:00 22.3 8 Oeste 20 Noroeste 0 987.1 -2.3 44
2020-03-11 13:00:00 20.8 9 Noroeste 18 Noroeste 0 988 -1.6 50
2020-03-11 12:00:00 18.9 8 Noroeste 18 Oeste 0 988.8 -0.8 56
2020-03-11 11:00:00 15.6 7 Sudoeste 12 Sudoeste 0 989.4 0.1 61
2020-03-11 10:00:00 13 2 Sur 5 Sudeste 0 989.6 0.4 62
2020-03-11 09:00:00 10.9 2 Noroeste 8 Sudoeste 0 989.6 0.8 84
2020-03-11 08:00:00 6.7 8 Sudoeste 12 Sudoeste 0 989.3 0.6 85
2020-03-11 07:00:00 5.9 8 Sudoeste 18 Sudoeste 0 989.2 0.5 88
2020-03-11 06:00:00 5.9 4 Sudeste 7 Sur 0 988.8 -0.6 84
2020-03-11 05:00:00 6.3 7 Sudoeste 11 Sudoeste 0 988.7 -1.1 81
2020-03-11 04:00:00 6.2 4 Nordeste 9 Sudoeste 0 988.7 -1.2 78
2020-03-11 03:00:00 6 7 Sur 9 Sudoeste 0 989.4 -0.5 78
2020-03-11 02:00:00 7.9 3 Sur 6 Sudoeste 0 989.8 0.1 69
2020-03-11 01:00:00 7.5 4 Sur 10 Noroeste 0 989.9 0.8 70
2020-03-11 00:00:00 9.2 8 Noroeste 10 Noroeste 0 989.9 0.8 63